EWG59M EDDM-EDDK
Flight info
| Callsign | EWG59M |
|---|---|
| Flight time | 0h 43m |
| Altitude | 34000 |
| Route | GIVMI1N/26R GIVMI Y101 ERNAS T161 GOLMO DCT AKANU L603 RATIM DCT ASKIK T840 GULKO GULKO1B |
| Aircraft | A320/M-SDE3FGHIRWY/LB1 |
Departure
| Time | 2026-05-05 17:05 |
|---|---|
| Airport | Munich Airport (EDDM) |
Arrival
| Time | 2026-05-05 17:48 |
|---|---|
| Airport | Cologne Bonn Airport (EDDK) |
| Time | Latitude | Longitude | Altitude | Speed | Heading |
|---|---|---|---|---|---|
| 2026-05-05 16:26 | 48.35891 | 11.79218 | 1485 ft | 0 kts | 264° |
| 2026-05-05 16:52 | 48.35891 | 11.79220 | 1485 ft | 2 kts | 264° |
| 2026-05-05 16:53 | 48.35894 | 11.79257 | 1485 ft | 4 kts | 263° |
| 2026-05-05 16:53 | 48.35897 | 11.79296 | 1485 ft | 2 kts | 263° |
| 2026-05-05 16:53 | 48.35899 | 11.79330 | 1481 ft | 4 kts | 276° |
| 2026-05-05 16:53 | 48.35891 | 11.79366 | 1479 ft | 4 kts | 314° |
| 2026-05-05 16:54 | 48.35871 | 11.79382 | 1476 ft | 4 kts | 353° |
| 2026-05-05 16:54 | 48.35855 | 11.79384 | 1471 ft | 0 kts | 353° |
| 2026-05-05 16:54 | 48.35851 | 11.79385 | 1471 ft | 2 kts | 353° |
| 2026-05-05 16:55 | 48.35834 | 11.79388 | 1474 ft | 2 kts | 353° |
| 2026-05-05 16:55 | 48.35816 | 11.79391 | 1473 ft | 3 kts | 353° |
| 2026-05-05 16:55 | 48.35799 | 11.79394 | 1481 ft | 3 kts | 353° |
| 2026-05-05 16:55 | 48.35782 | 11.79397 | 1478 ft | 3 kts | 353° |
| 2026-05-05 16:56 | 48.35779 | 11.79397 | 1477 ft | 0 kts | 353° |
| 2026-05-05 16:58 | 48.35784 | 11.79397 | 1478 ft | 5 kts | 353° |
| 2026-05-05 16:58 | 48.35856 | 11.79387 | 1471 ft | 11 kts | 2° |
| 2026-05-05 16:59 | 48.35904 | 11.79452 | 1479 ft | 9 kts | 65° |
| 2026-05-05 16:59 | 48.35945 | 11.79502 | 1477 ft | 8 kts | 13° |
| 2026-05-05 16:59 | 48.36006 | 11.79494 | 1472 ft | 9 kts | 353° |
| 2026-05-05 16:59 | 48.36040 | 11.79488 | 1485 ft | 0 kts | 353° |
| 2026-05-05 17:00 | 48.36051 | 11.79486 | 1472 ft | 7 kts | 353° |
| 2026-05-05 17:00 | 48.36134 | 11.79472 | 1481 ft | 14 kts | 353° |
| 2026-05-05 17:01 | 48.36217 | 11.79537 | 1478 ft | 15 kts | 70° |
| 2026-05-05 17:01 | 48.36231 | 11.79702 | 1483 ft | 16 kts | 83° |
| 2026-05-05 17:01 | 48.36245 | 11.79879 | 1485 ft | 18 kts | 83° |
| 2026-05-05 17:01 | 48.36260 | 11.80069 | 1485 ft | 19 kts | 83° |
| 2026-05-05 17:02 | 48.36275 | 11.80277 | 1485 ft | 21 kts | 83° |
| 2026-05-05 17:02 | 48.36294 | 11.80522 | 1477 ft | 26 kts | 84° |
| 2026-05-05 17:02 | 48.36317 | 11.80809 | 1482 ft | 28 kts | 83° |
| 2026-05-05 17:02 | 48.36339 | 11.81108 | 1482 ft | 29 kts | 83° |
| 2026-05-05 17:03 | 48.36363 | 11.81415 | 1485 ft | 30 kts | 83° |
| 2026-05-05 17:03 | 48.36387 | 11.81728 | 1485 ft | 30 kts | 84° |
| 2026-05-05 17:03 | 48.36396 | 11.81960 | 1479 ft | 14 kts | 66° |
| 2026-05-05 17:03 | 48.36482 | 11.81999 | 1479 ft | 14 kts | 355° |
| 2026-05-05 17:04 | 48.36584 | 11.81982 | 1479 ft | 15 kts | 353° |
| 2026-05-05 17:04 | 48.36665 | 11.81898 | 1475 ft | 16 kts | 283° |
| 2026-05-05 17:04 | 48.36645 | 11.81564 | 1483 ft | 65 kts | 264° |
| 2026-05-05 17:04 | 48.36569 | 11.80551 | 1483 ft | 128 kts | 263° |
| 2026-05-05 17:05 | 48.36450 | 11.78972 | 1593 ft | 166 kts | 265° |
| 2026-05-05 17:05 | 48.36344 | 11.77320 | 2361 ft | 161 kts | 267° |
| 2026-05-05 17:05 | 48.36238 | 11.75618 | 3005 ft | 170 kts | 267° |
| 2026-05-05 17:05 | 48.36108 | 11.73768 | 3457 ft | 185 kts | 267° |
| 2026-05-05 17:06 | 48.35953 | 11.71760 | 3849 ft | 202 kts | 266° |
| 2026-05-05 17:06 | 48.35789 | 11.69518 | 4190 ft | 224 kts | 268° |
| 2026-05-05 17:06 | 48.36033 | 11.67173 | 4693 ft | 241 kts | 294° |
| 2026-05-05 17:06 | 48.36930 | 11.64946 | 5270 ft | 257 kts | 302° |
| 2026-05-05 17:07 | 48.37928 | 11.62623 | 5950 ft | 270 kts | 301° |
| 2026-05-05 17:07 | 48.38927 | 11.60187 | 6771 ft | 276 kts | 300° |
| 2026-05-05 17:07 | 48.39929 | 11.57699 | 7654 ft | 279 kts | 299° |
| 2026-05-05 17:07 | 48.40938 | 11.55181 | 8545 ft | 283 kts | 298° |
| 2026-05-05 17:08 | 48.41959 | 11.52637 | 9472 ft | 285 kts | 298° |
| 2026-05-05 17:08 | 48.42992 | 11.50070 | 10290 ft | 289 kts | 298° |
| 2026-05-05 17:08 | 48.44044 | 11.47473 | 11110 ft | 292 kts | 299° |
| 2026-05-05 17:08 | 48.45343 | 11.45078 | 11906 ft | 300 kts | 314° |
| 2026-05-05 17:09 | 48.47072 | 11.43244 | 12572 ft | 314 kts | 330° |
| 2026-05-05 17:09 | 48.49219 | 11.42150 | 12815 ft | 340 kts | 347° |
| 2026-05-05 17:09 | 48.51578 | 11.41418 | 13363 ft | 350 kts | 342° |
| 2026-05-05 17:09 | 48.53910 | 11.40262 | 13924 ft | 356 kts | 336° |
| 2026-05-05 17:10 | 48.56221 | 11.38843 | 14549 ft | 361 kts | 334° |
| 2026-05-05 17:10 | 48.58538 | 11.37324 | 15190 ft | 365 kts | 334° |
| 2026-05-05 17:10 | 48.60878 | 11.35801 | 15841 ft | 369 kts | 335° |
| 2026-05-05 17:10 | 48.63265 | 11.34302 | 16503 ft | 374 kts | 335° |
| 2026-05-05 17:11 | 48.65691 | 11.32837 | 17195 ft | 378 kts | 336° |
| 2026-05-05 17:11 | 48.68163 | 11.31387 | 17854 ft | 382 kts | 337° |
| 2026-05-05 17:11 | 48.70658 | 11.29949 | 18450 ft | 387 kts | 337° |
| 2026-05-05 17:11 | 48.73188 | 11.28500 | 19023 ft | 390 kts | 337° |
| 2026-05-05 17:12 | 48.75741 | 11.27032 | 19582 ft | 394 kts | 337° |
| 2026-05-05 17:12 | 48.78283 | 11.25558 | 20091 ft | 398 kts | 337° |
| 2026-05-05 17:12 | 48.80915 | 11.24020 | 20633 ft | 402 kts | 337° |
| 2026-05-05 17:12 | 48.83445 | 11.22332 | 21149 ft | 403 kts | 329° |
| 2026-05-05 17:13 | 48.85821 | 11.19975 | 21668 ft | 404 kts | 319° |
| 2026-05-05 17:13 | 48.87901 | 11.17177 | 22159 ft | 406 kts | 315° |
| 2026-05-05 17:13 | 48.89989 | 11.14254 | 22672 ft | 409 kts | 315° |
| 2026-05-05 17:13 | 48.92095 | 11.11315 | 23176 ft | 412 kts | 315° |
| 2026-05-05 17:14 | 48.94152 | 11.08302 | 23619 ft | 414 kts | 309° |
| 2026-05-05 17:14 | 48.95898 | 11.04830 | 24016 ft | 413 kts | 299° |
| 2026-05-05 17:14 | 48.97235 | 11.00965 | 24437 ft | 413 kts | 289° |
| 2026-05-05 17:14 | 48.98202 | 10.96848 | 24834 ft | 414 kts | 285° |
| 2026-05-05 17:15 | 48.99124 | 10.92691 | 25251 ft | 417 kts | 285° |
| 2026-05-05 17:15 | 49.00054 | 10.88496 | 25644 ft | 419 kts | 285° |
| 2026-05-05 17:15 | 49.00994 | 10.84270 | 26026 ft | 422 kts | 285° |
| 2026-05-05 17:15 | 49.01939 | 10.80021 | 26392 ft | 425 kts | 285° |
| 2026-05-05 17:16 | 49.02887 | 10.75741 | 26790 ft | 427 kts | 285° |
| 2026-05-05 17:16 | 49.03850 | 10.71438 | 27172 ft | 431 kts | 287° |
| 2026-05-05 17:16 | 49.05105 | 10.67331 | 27534 ft | 437 kts | 297° |
| 2026-05-05 17:16 | 49.06836 | 10.63470 | 27903 ft | 444 kts | 307° |
| 2026-05-05 17:17 | 49.08975 | 10.60037 | 28295 ft | 449 kts | 314° |
| 2026-05-05 17:17 | 49.11230 | 10.56724 | 28646 ft | 451 kts | 314° |
| 2026-05-05 17:17 | 49.13489 | 10.53385 | 29004 ft | 454 kts | 314° |
| 2026-05-05 17:17 | 49.15761 | 10.50014 | 29345 ft | 457 kts | 313° |
| 2026-05-05 17:18 | 49.18043 | 10.46616 | 29688 ft | 459 kts | 313° |
| 2026-05-05 17:18 | 49.20336 | 10.43193 | 30012 ft | 462 kts | 313° |
| 2026-05-05 17:18 | 49.22639 | 10.39757 | 30282 ft | 464 kts | 313° |
| 2026-05-05 17:18 | 49.24804 | 10.36103 | 30564 ft | 463 kts | 306° |
| 2026-05-05 17:19 | 49.26849 | 10.32263 | 30828 ft | 465 kts | 306° |
| 2026-05-05 17:19 | 49.28898 | 10.28415 | 31105 ft | 467 kts | 306° |
| 2026-05-05 17:19 | 49.30956 | 10.24560 | 31426 ft | 468 kts | 307° |
| 2026-05-05 17:19 | 49.32989 | 10.20764 | 31788 ft | 468 kts | 307° |
| 2026-05-05 17:20 | 49.35055 | 10.16902 | 32147 ft | 467 kts | 307° |
| 2026-05-05 17:20 | 49.37110 | 10.13046 | 32523 ft | 466 kts | 307° |
| 2026-05-05 17:20 | 49.39159 | 10.09186 | 32797 ft | 466 kts | 306° |
| 2026-05-05 17:20 | 49.41204 | 10.05328 | 33068 ft | 465 kts | 306° |
| 2026-05-05 17:21 | 49.43242 | 10.01470 | 33352 ft | 465 kts | 306° |
| 2026-05-05 17:21 | 49.45271 | 9.97619 | 33613 ft | 464 kts | 306° |
| 2026-05-05 17:21 | 49.47306 | 9.93756 | 33803 ft | 464 kts | 306° |
| 2026-05-05 17:22 | 49.51306 | 9.86182 | 33844 ft | 452 kts | 306° |
| 2026-05-05 17:22 | 49.55247 | 9.78675 | 33835 ft | 451 kts | 306° |
| 2026-05-05 17:23 | 49.59175 | 9.71149 | 33833 ft | 451 kts | 306° |
| 2026-05-05 17:23 | 49.63105 | 9.63611 | 33831 ft | 451 kts | 306° |
| 2026-05-05 17:24 | 49.67026 | 9.56063 | 33830 ft | 451 kts | 306° |
| 2026-05-05 17:24 | 49.70597 | 9.48242 | 33852 ft | 447 kts | 296° |
| 2026-05-05 17:25 | 49.73691 | 9.39921 | 33840 ft | 447 kts | 296° |
| 2026-05-05 17:25 | 49.76762 | 9.31616 | 33418 ft | 440 kts | 296° |
| 2026-05-05 17:25 | 49.78275 | 9.27527 | 33141 ft | 438 kts | 296° |
| 2026-05-05 17:26 | 49.79783 | 9.23446 | 32871 ft | 435 kts | 296° |
| 2026-05-05 17:26 | 49.81279 | 9.19385 | 32601 ft | 433 kts | 296° |
| 2026-05-05 17:26 | 49.82765 | 9.15344 | 32334 ft | 431 kts | 296° |
| 2026-05-05 17:26 | 49.84249 | 9.11310 | 32046 ft | 429 kts | 296° |
| 2026-05-05 17:27 | 49.85719 | 9.07303 | 31827 ft | 427 kts | 296° |
| 2026-05-05 17:27 | 49.87186 | 9.03308 | 31563 ft | 426 kts | 297° |
| 2026-05-05 17:27 | 49.88629 | 8.99376 | 31301 ft | 424 kts | 297° |
| 2026-05-05 17:27 | 49.90095 | 8.95369 | 30877 ft | 420 kts | 297° |
| 2026-05-05 17:28 | 49.91513 | 8.91471 | 30414 ft | 418 kts | 297° |
| 2026-05-05 17:28 | 49.92936 | 8.87556 | 29913 ft | 416 kts | 297° |
| 2026-05-05 17:28 | 49.94353 | 8.83651 | 29403 ft | 413 kts | 297° |
| 2026-05-05 17:28 | 49.95757 | 8.79786 | 28942 ft | 409 kts | 297° |
| 2026-05-05 17:29 | 49.97146 | 8.75959 | 28490 ft | 405 kts | 297° |
| 2026-05-05 17:29 | 49.98521 | 8.72159 | 28047 ft | 401 kts | 297° |
| 2026-05-05 17:29 | 49.99880 | 8.68395 | 27603 ft | 397 kts | 297° |
| 2026-05-05 17:29 | 50.01225 | 8.64659 | 27154 ft | 394 kts | 297° |
| 2026-05-05 17:30 | 50.02559 | 8.60953 | 26710 ft | 391 kts | 297° |
| 2026-05-05 17:30 | 50.04043 | 8.57427 | 26253 ft | 391 kts | 308° |
| 2026-05-05 17:30 | 50.05946 | 8.54418 | 25794 ft | 390 kts | 320° |
| 2026-05-05 17:30 | 50.08195 | 8.52075 | 25336 ft | 389 kts | 332° |
| 2026-05-05 17:31 | 50.10693 | 8.50458 | 24879 ft | 388 kts | 341° |
| 2026-05-05 17:31 | 50.13239 | 8.49104 | 24394 ft | 387 kts | 341° |
| 2026-05-05 17:31 | 50.15784 | 8.47738 | 23918 ft | 387 kts | 340° |
| 2026-05-05 17:31 | 50.18327 | 8.46366 | 23408 ft | 386 kts | 340° |
| 2026-05-05 17:32 | 50.20833 | 8.45007 | 22887 ft | 386 kts | 340° |
| 2026-05-05 17:32 | 50.23392 | 8.43617 | 22380 ft | 383 kts | 340° |
| 2026-05-05 17:32 | 50.25905 | 8.42254 | 21915 ft | 381 kts | 340° |
| 2026-05-05 17:32 | 50.28380 | 8.40880 | 21351 ft | 384 kts | 336° |
| 2026-05-05 17:33 | 50.30726 | 8.38920 | 20834 ft | 382 kts | 326° |
| 2026-05-05 17:33 | 50.32970 | 8.36680 | 20330 ft | 381 kts | 326° |
| 2026-05-05 17:33 | 50.35201 | 8.34457 | 19822 ft | 380 kts | 326° |
| 2026-05-05 17:33 | 50.37428 | 8.32235 | 19348 ft | 379 kts | 326° |
| 2026-05-05 17:34 | 50.39648 | 8.30016 | 18869 ft | 377 kts | 326° |
| 2026-05-05 17:34 | 50.41855 | 8.27807 | 18396 ft | 376 kts | 326° |
| 2026-05-05 17:34 | 50.44052 | 8.25606 | 17905 ft | 375 kts | 326° |
| 2026-05-05 17:34 | 50.46250 | 8.23403 | 17361 ft | 374 kts | 326° |
| 2026-05-05 17:35 | 50.48435 | 8.21211 | 16849 ft | 373 kts | 326° |
| 2026-05-05 17:35 | 50.50612 | 8.19029 | 16319 ft | 368 kts | 326° |
| 2026-05-05 17:35 | 50.52751 | 8.16887 | 15816 ft | 361 kts | 326° |
| 2026-05-05 17:35 | 50.54852 | 8.14779 | 15314 ft | 355 kts | 326° |
| 2026-05-05 17:36 | 50.56918 | 8.12703 | 14820 ft | 350 kts | 326° |
| 2026-05-05 17:36 | 50.58957 | 8.10649 | 14335 ft | 346 kts | 326° |
| 2026-05-05 17:36 | 50.60966 | 8.08617 | 13855 ft | 341 kts | 327° |
| 2026-05-05 17:36 | 50.62945 | 8.06603 | 13378 ft | 337 kts | 326° |
| 2026-05-05 17:37 | 50.64902 | 8.04611 | 12843 ft | 332 kts | 326° |
| 2026-05-05 17:37 | 50.66114 | 8.03180 | 12495 ft | 328 kts | 315° |
| 2026-05-05 17:37 | 50.67628 | 7.99242 | 11817 ft | 313 kts | 282° |
| 2026-05-05 17:37 | 50.67793 | 7.95897 | 11345 ft | 303 kts | 265° |
| 2026-05-05 17:38 | 50.67648 | 7.92619 | 11128 ft | 296 kts | 264° |
| 2026-05-05 17:38 | 50.67478 | 7.89404 | 10830 ft | 293 kts | 264° |
| 2026-05-05 17:38 | 50.67305 | 7.86208 | 10500 ft | 292 kts | 264° |
| 2026-05-05 17:38 | 50.67130 | 7.83039 | 10158 ft | 290 kts | 264° |
| 2026-05-05 17:39 | 50.66957 | 7.79889 | 9745 ft | 286 kts | 263° |
| 2026-05-05 17:39 | 50.66784 | 7.76773 | 9098 ft | 284 kts | 263° |
| 2026-05-05 17:39 | 50.66611 | 7.73688 | 8470 ft | 282 kts | 264° |
| 2026-05-05 17:39 | 50.66439 | 7.70631 | 7845 ft | 279 kts | 263° |
| 2026-05-05 17:40 | 50.66266 | 7.67602 | 7241 ft | 276 kts | 263° |
| 2026-05-05 17:40 | 50.66093 | 7.64607 | 6624 ft | 273 kts | 264° |
| 2026-05-05 17:40 | 50.65978 | 7.62637 | 6227 ft | 272 kts | 264° |
| 2026-05-05 17:40 | 50.65808 | 7.59673 | 5574 ft | 270 kts | 263° |
| 2026-05-05 17:41 | 50.65636 | 7.56747 | 4968 ft | 267 kts | 264° |
| 2026-05-05 17:41 | 50.65478 | 7.53933 | 4815 ft | 247 kts | 266° |
| 2026-05-05 17:41 | 50.65651 | 7.51346 | 4649 ft | 231 kts | 281° |
| 2026-05-05 17:41 | 50.66132 | 7.48981 | 4273 ft | 226 kts | 298° |
| 2026-05-05 17:42 | 50.66959 | 7.46879 | 3834 ft | 226 kts | 302° |
| 2026-05-05 17:42 | 50.67797 | 7.44796 | 3450 ft | 223 kts | 303° |
| 2026-05-05 17:42 | 50.68619 | 7.42759 | 3200 ft | 216 kts | 303° |
| 2026-05-05 17:42 | 50.69407 | 7.40804 | 3011 ft | 204 kts | 303° |
| 2026-05-05 17:43 | 50.70173 | 7.39004 | 3014 ft | 195 kts | 310° |
| 2026-05-05 17:43 | 50.71084 | 7.37435 | 3003 ft | 193 kts | 317° |
| 2026-05-05 17:43 | 50.72059 | 7.35975 | 2999 ft | 194 kts | 319° |
| 2026-05-05 17:43 | 50.73050 | 7.34539 | 3007 ft | 193 kts | 319° |
| 2026-05-05 17:44 | 50.74040 | 7.33115 | 3007 ft | 192 kts | 319° |
| 2026-05-05 17:44 | 50.75014 | 7.31714 | 2995 ft | 192 kts | 319° |
| 2026-05-05 17:44 | 50.76001 | 7.30295 | 2843 ft | 191 kts | 320° |
| 2026-05-05 17:44 | 50.76984 | 7.28880 | 2615 ft | 191 kts | 319° |
| 2026-05-05 17:45 | 50.77956 | 7.27481 | 2387 ft | 185 kts | 320° |
| 2026-05-05 17:45 | 50.78879 | 7.26152 | 2133 ft | 173 kts | 320° |
| 2026-05-05 17:45 | 50.79727 | 7.24929 | 1926 ft | 155 kts | 320° |
| 2026-05-05 17:45 | 50.80491 | 7.23828 | 1722 ft | 144 kts | 320° |
| 2026-05-05 17:46 | 50.81220 | 7.22777 | 1519 ft | 140 kts | 320° |
| 2026-05-05 17:46 | 50.81937 | 7.21744 | 1319 ft | 139 kts | 319° |
| 2026-05-05 17:46 | 50.82647 | 7.20719 | 1122 ft | 137 kts | 318° |
| 2026-05-05 17:46 | 50.83347 | 7.19708 | 947 ft | 135 kts | 318° |
| 2026-05-05 17:47 | 50.84035 | 7.18716 | 749 ft | 132 kts | 317° |
| 2026-05-05 17:47 | 50.84706 | 7.17741 | 568 ft | 131 kts | 317° |
| 2026-05-05 17:47 | 50.85369 | 7.16783 | 418 ft | 130 kts | 319° |
| 2026-05-05 17:47 | 50.86028 | 7.15822 | 301 ft | 123 kts | 317° |
| 2026-05-05 17:48 | 50.86561 | 7.15062 | 277 ft | 84 kts | 317° |
| 2026-05-05 17:48 | 50.86945 | 7.14506 | 258 ft | 68 kts | 317° |
| 2026-05-05 17:48 | 50.87264 | 7.14043 | 244 ft | 56 kts | 317° |
| 2026-05-05 17:48 | 50.87523 | 7.13668 | 240 ft | 45 kts | 317° |
| 2026-05-05 17:49 | 50.87735 | 7.13363 | 239 ft | 37 kts | 317° |
| 2026-05-05 17:49 | 50.87908 | 7.13110 | 239 ft | 31 kts | 317° |
| 2026-05-05 17:49 | 50.88004 | 7.12908 | 239 ft | 17 kts | 283° |
| 2026-05-05 17:49 | 50.87995 | 7.12754 | 240 ft | 14 kts | 248° |
| 2026-05-05 17:50 | 50.87926 | 7.12639 | 232 ft | 13 kts | 201° |
| 2026-05-05 17:50 | 50.87891 | 7.12600 | 232 ft | 2 kts | 247° |
| 2026-05-05 17:50 | 50.87892 | 7.12584 | 232 ft | 5 kts | 272° |
| 2026-05-05 17:50 | 50.87898 | 7.12542 | 232 ft | 3 kts | 285° |
| 2026-05-05 17:51 | 50.87906 | 7.12501 | 232 ft | 2 kts | 288° |
| 2026-05-05 17:51 | 50.87909 | 7.12490 | 234 ft | 1 kts | 288° |